sensor_id;sensor_type;location;lat;lon;timestamp;pressure;altitude;pressure_sealevel;temperature;humidity
54996;BME280;40893;47.146;9.126;2022-08-21T00:01:58;91468.03;;;15.07;100.00
54996;BME280;40893;47.146;9.126;2022-08-21T00:04:24;91470.63;;;15.07;100.00
54996;BME280;40893;47.146;9.126;2022-08-21T00:06:51;91464.66;;;14.98;100.00
54996;BME280;40893;47.146;9.126;2022-08-21T00:09:18;91458.38;;;14.90;100.00
54996;BME280;40893;47.146;9.126;2022-08-21T00:11:44;91462.94;;;14.84;100.00
54996;BME280;40893;47.146;9.126;2022-08-21T00:14:10;91460.66;;;14.83;100.00
54996;BME280;40893;47.146;9.126;2022-08-21T00:16:36;91462.19;;;14.84;100.00
54996;BME280;40893;47.146;9.126;2022-08-21T00:19:02;91464.94;;;14.87;100.00
54996;BME280;40893;47.146;9.126;2022-08-21T00:21:28;91458.09;;;14.92;100.00
54996;BME280;40893;47.146;9.126;2022-08-21T00:23:54;91461.88;;;14.85;100.00
54996;BME280;40893;47.146;9.126;2022-08-21T00:26:20;91454.69;;;14.74;100.00
54996;BME280;40893;47.146;9.126;2022-08-21T00:28:45;91452.88;;;14.74;100.00
54996;BME280;40893;47.146;9.126;2022-08-21T00:31:14;91447.41;;;14.76;100.00
54996;BME280;40893;47.146;9.126;2022-08-21T00:33:40;91459.25;;;14.77;100.00
54996;BME280;40893;47.146;9.126;2022-08-21T00:36:06;91451.22;;;14.78;100.00
54996;BME280;40893;47.146;9.126;2022-08-21T00:38:32;91448.25;;;14.63;100.00
54996;BME280;40893;47.146;9.126;2022-08-21T00:41:00;91453.66;;;14.52;100.00
54996;BME280;40893;47.146;9.126;2022-08-21T00:43:30;91450.31;;;14.52;100.00
54996;BME280;40893;47.146;9.126;2022-08-21T00:45:57;91454.25;;;14.49;100.00
54996;BME280;40893;47.146;9.126;2022-08-21T00:48:24;91450.19;;;14.57;100.00
54996;BME280;40893;47.146;9.126;2022-08-21T00:51:37;91446.44;;;14.63;100.00
54996;BME280;40893;47.146;9.126;2022-08-21T00:53:44;91443.81;;;14.55;100.00
54996;BME280;40893;47.146;9.126;2022-08-21T00:56:11;91451.97;;;14.48;100.00
54996;BME280;40893;47.146;9.126;2022-08-21T00:58:40;91448.78;;;14.51;100.00
54996;BME280;40893;47.146;9.126;2022-08-21T01:01:10;91446.94;;;14.43;100.00
54996;BME280;40893;47.146;9.126;2022-08-21T01:03:36;91451.03;;;14.44;100.00
54996;BME280;40893;47.146;9.126;2022-08-21T01:06:04;91448.31;;;14.49;100.00
54996;BME280;40893;47.146;9.126;2022-08-21T01:08:30;91455.78;;;14.50;100.00
54996;BME280;40893;47.146;9.126;2022-08-21T01:10:56;91449.25;;;14.53;100.00
54996;BME280;40893;47.146;9.126;2022-08-21T01:13:22;91457.47;;;14.55;100.00
54996;BME280;40893;47.146;9.126;2022-08-21T01:15:50;91450.66;;;14.59;100.00
54996;BME280;40893;47.146;9.126;2022-08-21T01:18:18;91444.72;;;14.59;100.00
54996;BME280;40893;47.146;9.126;2022-08-21T01:21:17;91446.84;;;14.57;100.00
54996;BME280;40893;47.146;9.126;2022-08-21T01:23:46;91443.50;;;14.56;100.00
54996;BME280;40893;47.146;9.126;2022-08-21T01:26:14;91438.03;;;14.58;100.00
54996;BME280;40893;47.146;9.126;2022-08-21T01:29:09;91435.75;;;14.56;100.00
54996;BME280;40893;47.146;9.126;2022-08-21T01:31:37;91429.84;;;14.56;100.00
54996;BME280;40893;47.146;9.126;2022-08-21T01:34:03;91429.53;;;14.57;100.00
54996;BME280;40893;47.146;9.126;2022-08-21T01:36:30;91423.59;;;14.57;100.00
54996;BME280;40893;47.146;9.126;2022-08-21T01:38:56;91422.72;;;14.61;100.00
54996;BME280;40893;47.146;9.126;2022-08-21T01:41:21;91425.31;;;14.61;100.00
54996;BME280;40893;47.146;9.126;2022-08-21T01:43:47;91416.03;;;14.60;100.00
54996;BME280;40893;47.146;9.126;2022-08-21T01:46:13;91416.63;;;14.57;100.00
54996;BME280;40893;47.146;9.126;2022-08-21T01:48:39;91414.28;;;14.47;100.00
54996;BME280;40893;47.146;9.126;2022-08-21T01:51:05;91415.72;;;14.31;100.00
54996;BME280;40893;47.146;9.126;2022-08-21T01:53:33;91419.88;;;14.18;100.00
54996;BME280;40893;47.146;9.126;2022-08-21T01:56:01;91408.00;;;14.08;100.00
54996;BME280;40893;47.146;9.126;2022-08-21T01:58:27;91411.03;;;14.10;100.00
54996;BME280;40893;47.146;9.126;2022-08-21T02:00:53;91413.31;;;14.12;100.00
54996;BME280;40893;47.146;9.126;2022-08-21T02:03:18;91410.44;;;14.13;100.00
54996;BME280;40893;47.146;9.126;2022-08-21T02:05:44;91413.81;;;14.23;100.00
54996;BME280;40893;47.146;9.126;2022-08-21T02:08:10;91407.50;;;14.29;100.00
54996;BME280;40893;47.146;9.126;2022-08-21T02:10:36;91401.28;;;14.30;100.00
54996;BME280;40893;47.146;9.126;2022-08-21T02:13:02;91405.63;;;14.21;100.00
54996;BME280;40893;47.146;9.126;2022-08-21T02:15:28;91406.31;;;14.12;100.00
54996;BME280;40893;47.146;9.126;2022-08-21T02:17:57;91404.22;;;14.14;100.00
54996;BME280;40893;47.146;9.126;2022-08-21T02:20:32;91410.13;;;14.15;100.00
54996;BME280;40893;47.146;9.126;2022-08-21T02:22:59;91401.16;;;14.12;100.00
54996;BME280;40893;47.146;9.126;2022-08-21T02:25:27;91398.94;;;14.20;100.00
54996;BME280;40893;47.146;9.126;2022-08-21T02:27:53;91396.84;;;14.22;100.00
54996;BME280;40893;47.146;9.126;2022-08-21T02:30:35;91392.59;;;14.26;100.00
54996;BME280;40893;47.146;9.126;2022-08-21T02:33:03;91386.84;;;14.29;100.00
54996;BME280;40893;47.146;9.126;2022-08-21T02:35:29;91389.72;;;14.27;100.00
54996;BME280;40893;47.146;9.126;2022-08-21T02:37:58;91390.16;;;14.21;100.00
54996;BME280;40893;47.146;9.126;2022-08-21T02:40:27;91390.59;;;14.23;100.00
54996;BME280;40893;47.146;9.126;2022-08-21T02:42:54;91384.38;;;14.24;100.00
54996;BME280;40893;47.146;9.126;2022-08-21T02:45:20;91383.50;;;14.28;100.00
54996;BME280;40893;47.146;9.126;2022-08-21T02:48:00;91385.28;;;14.19;100.00
54996;BME280;40893;47.146;9.126;2022-08-21T02:50:31;91391.22;;;14.20;100.00
54996;BME280;40893;47.146;9.126;2022-08-21T02:52:58;91386.97;;;14.24;100.00
54996;BME280;40893;47.146;9.126;2022-08-21T02:55:26;91384.84;;;14.26;100.00
54996;BME280;40893;47.146;9.126;2022-08-21T02:57:53;91380.47;;;14.26;100.00
54996;BME280;40893;47.146;9.126;2022-08-21T03:00:20;91384.28;;;14.29;100.00
54996;BME280;40893;47.146;9.126;2022-08-21T03:02:47;91386.97;;;14.24;100.00
54996;BME280;40893;47.146;9.126;2022-08-21T03:05:13;91385.97;;;14.11;100.00
54996;BME280;40893;47.146;9.126;2022-08-21T03:07:39;91384.69;;;14.00;100.00
54996;BME280;40893;47.146;9.126;2022-08-21T03:10:05;91379.84;;;13.98;100.00
54996;BME280;40893;47.146;9.126;2022-08-21T03:12:31;91387.59;;;13.98;100.00
54996;BME280;40893;47.146;9.126;2022-08-21T03:14:57;91378.50;;;14.01;100.00
54996;BME280;40893;47.146;9.126;2022-08-21T03:17:23;91377.91;;;14.04;100.00
54996;BME280;40893;47.146;9.126;2022-08-21T03:19:50;91377.03;;;14.08;100.00
54996;BME280;40893;47.146;9.126;2022-08-21T03:22:15;91381.59;;;14.11;100.00
54996;BME280;40893;47.146;9.126;2022-08-21T03:24:41;91372.03;;;14.12;100.00
54996;BME280;40893;47.146;9.126;2022-08-21T03:27:06;91369.63;;;14.15;100.00
54996;BME280;40893;47.146;9.126;2022-08-21T03:29:32;91368.56;;;14.16;100.00
54996;BME280;40893;47.146;9.126;2022-08-21T03:31:57;91372.38;;;14.19;100.00
54996;BME280;40893;47.146;9.126;2022-08-21T03:34:23;91366.28;;;14.15;100.00
54996;BME280;40893;47.146;9.126;2022-08-21T03:36:49;91365.22;;;14.16;100.00
54996;BME280;40893;47.146;9.126;2022-08-21T03:39:18;91366.00;;;14.16;100.00
54996;BME280;40893;47.146;9.126;2022-08-21T03:41:43;91361.72;;;14.12;100.00
54996;BME280;40893;47.146;9.126;2022-08-21T03:44:09;91370.31;;;13.99;100.00
54996;BME280;40893;47.146;9.126;2022-08-21T03:46:34;91364.81;;;14.00;100.00
54996;BME280;40893;47.146;9.126;2022-08-21T03:49:00;91366.34;;;14.01;100.00
54996;BME280;40893;47.146;9.126;2022-08-21T03:51:26;91375.03;;;14.05;100.00
54996;BME280;40893;47.146;9.126;2022-08-21T03:53:51;91367.47;;;14.09;100.00
54996;BME280;40893;47.146;9.126;2022-08-21T03:56:20;91369.00;;;14.10;100.00
54996;BME280;40893;47.146;9.126;2022-08-21T03:58:45;91360.19;;;14.11;100.00
54996;BME280;40893;47.146;9.126;2022-08-21T04:01:11;91367.34;;;14.14;100.00
54996;BME280;40893;47.146;9.126;2022-08-21T04:03:37;91365.22;;;14.16;100.00
54996;BME280;40893;47.146;9.126;2022-08-21T04:06:04;91368.28;;;14.18;100.00
54996;BME280;40893;47.146;9.126;2022-08-21T04:08:29;91368.28;;;14.18;100.00
54996;BME280;40893;47.146;9.126;2022-08-21T04:10:56;91378.25;;;14.11;100.00
54996;BME280;40893;47.146;9.126;2022-08-21T04:13:23;91378.56;;;14.09;100.00
54996;BME280;40893;47.146;9.126;2022-08-21T04:15:49;91380.81;;;14.11;100.00
54996;BME280;40893;47.146;9.126;2022-08-21T04:18:14;91371.25;;;14.11;100.00
54996;BME280;40893;47.146;9.126;2022-08-21T04:20:42;91378.56;;;14.09;100.00
54996;BME280;40893;47.146;9.126;2022-08-21T04:23:08;91370.81;;;14.09;100.00
54996;BME280;40893;47.146;9.126;2022-08-21T04:25:34;91378.41;;;14.14;100.00
54996;BME280;40893;47.146;9.126;2022-08-21T04:28:00;91386.59;;;14.08;100.00
54996;BME280;40893;47.146;9.126;2022-08-21T04:30:27;91384.06;;;13.94;100.00
54996;BME280;40893;47.146;9.126;2022-08-21T04:32:53;91377.63;;;13.83;100.00
54996;BME280;40893;47.146;9.126;2022-08-21T04:35:21;91384.25;;;13.75;100.00
54996;BME280;40893;47.146;9.126;2022-08-21T04:37:48;91389.56;;;13.79;100.00
54996;BME280;40893;47.146;9.126;2022-08-21T04:40:15;91392.50;;;13.86;100.00
54996;BME280;40893;47.146;9.126;2022-08-21T04:42:47;91394.03;;;13.87;100.00
54996;BME280;40893;47.146;9.126;2022-08-21T04:45:22;91388.56;;;13.89;100.00
54996;BME280;40893;47.146;9.126;2022-08-21T04:47:50;91393.44;;;13.90;100.00
54996;BME280;40893;47.146;9.126;2022-08-21T04:50:17;91385.31;;;13.97;100.00
54996;BME280;40893;47.146;9.126;2022-08-21T04:52:43;91390.81;;;14.04;100.00
54996;BME280;40893;47.146;9.126;2022-08-21T04:55:08;91388.13;;;14.09;100.00
54996;BME280;40893;47.146;9.126;2022-08-21T04:57:34;91395.72;;;14.14;100.00
54996;BME280;40893;47.146;9.126;2022-08-21T05:00:02;91397.53;;;14.13;100.00
54996;BME280;40893;47.146;9.126;2022-08-21T05:02:28;91399.88;;;14.01;100.00
54996;BME280;40893;47.146;9.126;2022-08-21T05:04:55;91408.28;;;14.07;100.00
54996;BME280;40893;47.146;9.126;2022-08-21T05:07:23;91407.22;;;14.08;100.00
54996;BME280;40893;47.146;9.126;2022-08-21T05:09:52;91406.03;;;14.14;100.00
54996;BME280;40893;47.146;9.126;2022-08-21T05:12:17;91403.63;;;14.17;100.00
54996;BME280;40893;47.146;9.126;2022-08-21T05:14:44;91402.13;;;14.16;100.00
54996;BME280;40893;47.146;9.126;2022-08-21T05:17:09;91405.28;;;14.13;100.00
54996;BME280;40893;47.146;9.126;2022-08-21T05:19:35;91402.81;;;14.08;100.00
54996;BME280;40893;47.146;9.126;2022-08-21T05:22:01;91401.31;;;14.07;100.00
54996;BME280;40893;47.146;9.126;2022-08-21T05:24:27;91393.66;;;14.02;100.00
54996;BME280;40893;47.146;9.126;2022-08-21T05:26:53;91393.03;;;13.97;100.00
54996;BME280;40893;47.146;9.126;2022-08-21T05:29:18;91395.16;;;13.95;100.00
54996;BME280;40893;47.146;9.126;2022-08-21T05:31:44;91398.50;;;13.95;100.00
54996;BME280;40893;47.146;9.126;2022-08-21T05:34:12;91400.81;;;14.05;100.00
54996;BME280;40893;47.146;9.126;2022-08-21T05:36:38;91391.78;;;14.16;100.00
54996;BME280;40893;47.146;9.126;2022-08-21T05:39:04;91386.19;;;14.23;100.00
54996;BME280;40893;47.146;9.126;2022-08-21T05:41:30;91390.97;;;14.30;100.00
54996;BME280;40893;47.146;9.126;2022-08-21T05:43:55;91392.25;;;14.41;100.00
54996;BME280;40893;47.146;9.126;2022-08-21T05:46:21;91388.19;;;14.48;100.00
54996;BME280;40893;47.146;9.126;2022-08-21T05:48:47;91388.09;;;14.62;100.00
54996;BME280;40893;47.146;9.126;2022-08-21T05:51:14;91389.88;;;14.84;100.00
54996;BME280;40893;47.146;9.126;2022-08-21T05:53:41;91388.88;;;15.11;100.00
54996;BME280;40893;47.146;9.126;2022-08-21T05:56:07;91384.66;;;15.32;100.00
54996;BME280;40893;47.146;9.126;2022-08-21T05:58:34;91384.84;;;15.44;100.00
54996;BME280;40893;47.146;9.126;2022-08-21T06:01:01;91380.75;;;15.69;100.00
54996;BME280;40893;47.146;9.126;2022-08-21T06:03:33;91385.47;;;16.10;100.00
54996;BME280;40893;47.146;9.126;2022-08-21T06:06:00;91382.63;;;16.50;100.00
54996;BME280;40893;47.146;9.126;2022-08-21T06:08:26;91377.38;;;16.84;100.00
54996;BME280;40893;47.146;9.126;2022-08-21T06:10:53;91384.28;;;17.10;100.00
54996;BME280;40893;47.146;9.126;2022-08-21T06:13:20;91381.31;;;17.20;98.45
54996;BME280;40893;47.146;9.126;2022-08-21T06:15:47;91377.50;;;17.26;96.77
54996;BME280;40893;47.146;9.126;2022-08-21T06:18:13;91385.53;;;17.33;96.81
54996;BME280;40893;47.146;9.126;2022-08-21T06:20:39;91382.34;;;17.27;94.40
54996;BME280;40893;47.146;9.126;2022-08-21T06:23:04;91378.50;;;17.33;96.47
54996;BME280;40893;47.146;9.126;2022-08-21T06:25:30;91371.13;;;17.44;96.78
54996;BME280;40893;47.146;9.126;2022-08-21T06:28:07;91372.88;;;17.52;97.09
54996;BME280;40893;47.146;9.126;2022-08-21T06:30:35;91372.97;;;17.64;97.01
54996;BME280;40893;47.146;9.126;2022-08-21T06:33:01;91369.25;;;17.74;96.55
54996;BME280;40893;47.146;9.126;2022-08-21T06:35:27;91364.63;;;17.80;94.43
54996;BME280;40893;47.146;9.126;2022-08-21T06:37:55;91366.91;;;17.81;96.44
54996;BME280;40893;47.146;9.126;2022-08-21T06:40:21;91363.25;;;17.82;95.67
54996;BME280;40893;47.146;9.126;2022-08-21T06:42:46;91356.97;;;17.83;96.46
54996;BME280;40893;47.146;9.126;2022-08-21T06:45:12;91357.09;;;17.87;98.52
54996;BME280;40893;47.146;9.126;2022-08-21T06:47:38;91354.94;;;17.89;96.46
54996;BME280;40893;47.146;9.126;2022-08-21T06:50:04;91359.94;;;17.94;97.69
54996;BME280;40893;47.146;9.126;2022-08-21T06:52:33;91362.78;;;18.01;97.36
54996;BME280;40893;47.146;9.126;2022-08-21T06:54:58;91355.75;;;18.01;98.27
54996;BME280;40893;47.146;9.126;2022-08-21T06:57:24;91354.91;;;18.09;100.00
54996;BME280;40893;47.146;9.126;2022-08-21T06:59:51;91357.09;;;18.20;97.90
54996;BME280;40893;47.146;9.126;2022-08-21T07:02:17;91362.97;;;18.29;97.86
54996;BME280;40893;47.146;9.126;2022-08-21T07:04:42;91362.75;;;18.34;97.43
54996;BME280;40893;47.146;9.126;2022-08-21T07:07:08;91353.38;;;18.54;97.55
54996;BME280;40893;47.146;9.126;2022-08-21T07:09:34;91361.88;;;18.63;95.43
54996;BME280;40893;47.146;9.126;2022-08-21T07:12:00;91363.94;;;18.69;93.82
54996;BME280;40893;47.146;9.126;2022-08-21T07:14:25;91371.53;;;18.74;95.41
54996;BME280;40893;47.146;9.126;2022-08-21T07:16:51;91371.88;;;18.73;91.52
54996;BME280;40893;47.146;9.126;2022-08-21T07:19:17;91367.56;;;18.56;90.46
54996;BME280;40893;47.146;9.126;2022-08-21T07:21:43;91368.88;;;18.50;89.41
54996;BME280;40893;47.146;9.126;2022-08-21T07:24:08;91365.75;;;18.57;94.92
54996;BME280;40893;47.146;9.126;2022-08-21T07:26:35;91360.38;;;18.74;93.51
54996;BME280;40893;47.146;9.126;2022-08-21T07:29:01;91364.41;;;18.83;92.15
54996;BME280;40893;47.146;9.126;2022-08-21T07:31:27;91362.56;;;18.84;91.66
54996;BME280;40893;47.146;9.126;2022-08-21T07:33:52;91357.03;;;18.85;91.77
54996;BME280;40893;47.146;9.126;2022-08-21T07:36:19;91361.25;;;18.90;93.59
54996;BME280;40893;47.146;9.126;2022-08-21T07:38:45;91361.06;;;19.07;95.95
54996;BME280;40893;47.146;9.126;2022-08-21T07:41:18;91362.34;;;19.13;92.41
54996;BME280;40893;47.146;9.126;2022-08-21T07:43:44;91357.59;;;19.15;91.44
54996;BME280;40893;47.146;9.126;2022-08-21T07:46:10;91364.31;;;19.16;91.72
54996;BME280;40893;47.146;9.126;2022-08-21T07:48:36;91358.34;;;19.16;86.92
54996;BME280;40893;47.146;9.126;2022-08-21T07:51:09;91357.25;;;19.17;88.83
54996;BME280;40893;47.146;9.126;2022-08-21T07:53:36;91349.09;;;19.31;88.45
54996;BME280;40893;47.146;9.126;2022-08-21T07:56:03;91352.00;;;19.41;86.42
54996;BME280;40893;47.146;9.126;2022-08-21T07:58:30;91351.16;;;19.62;90.48
54996;BME280;40893;47.146;9.126;2022-08-21T08:00:56;91354.06;;;19.72;89.80
54996;BME280;40893;47.146;9.126;2022-08-21T08:03:22;91352.41;;;19.80;86.62
54996;BME280;40893;47.146;9.126;2022-08-21T08:05:47;91345.00;;;19.82;84.69
54996;BME280;40893;47.146;9.126;2022-08-21T08:08:13;91345.47;;;20.00;83.95
54996;BME280;40893;47.146;9.126;2022-08-21T08:10:39;91338.63;;;20.07;84.07
54996;BME280;40893;47.146;9.126;2022-08-21T08:13:05;91346.19;;;20.12;82.93
54996;BME280;40893;47.146;9.126;2022-08-21T08:15:31;91344.88;;;20.18;81.21
54996;BME280;40893;47.146;9.126;2022-08-21T08:17:56;91342.03;;;20.23;84.03
54996;BME280;40893;47.146;9.126;2022-08-21T08:20:24;91343.91;;;20.11;79.24
54996;BME280;40893;47.146;9.126;2022-08-21T08:22:52;91337.41;;;20.17;86.55
54996;BME280;40893;47.146;9.126;2022-08-21T08:25:19;91338.00;;;20.26;81.15
54996;BME280;40893;47.146;9.126;2022-08-21T08:27:45;91330.03;;;20.35;83.32
54996;BME280;40893;47.146;9.126;2022-08-21T08:30:13;91333.19;;;20.40;84.43
54996;BME280;40893;47.146;9.126;2022-08-21T08:32:39;91326.88;;;20.57;81.37
54996;BME280;40893;47.146;9.126;2022-08-21T08:35:07;91328.97;;;20.67;82.96
54996;BME280;40893;47.146;9.126;2022-08-21T08:37:33;91324.53;;;20.67;78.48
54996;BME280;40893;47.146;9.126;2022-08-21T08:39:58;91324.03;;;20.78;85.66
54996;BME280;40893;47.146;9.126;2022-08-21T08:42:27;91326.81;;;20.85;79.83
54996;BME280;40893;47.146;9.126;2022-08-21T08:45:02;91325.22;;;20.96;79.97
54996;BME280;40893;47.146;9.126;2022-08-21T08:47:30;91325.78;;;21.05;82.14
54996;BME280;40893;47.146;9.126;2022-08-21T08:50:07;91324.78;;;21.10;77.65
54996;BME280;40893;47.146;9.126;2022-08-21T08:52:44;91325.94;;;21.12;78.44
54996;BME280;40893;47.146;9.126;2022-08-21T08:55:20;91324.78;;;21.10;77.88
54996;BME280;40893;47.146;9.126;2022-08-21T08:57:48;91327.72;;;21.24;78.99
54996;BME280;40893;47.146;9.126;2022-08-21T09:00:18;91328.13;;;21.26;77.13
54996;BME280;40893;47.146;9.126;2022-08-21T09:02:45;91322.16;;;21.25;76.01
54996;BME280;40893;47.146;9.126;2022-08-21T09:08:50;91331.16;;;21.28;77.77
54996;BME280;40893;47.146;9.126;2022-08-21T09:17:35;91324.13;;;21.48;72.40
54996;BME280;40893;47.146;9.126;2022-08-21T09:26:17;91314.72;;;21.43;74.40
54996;BME280;40893;47.146;9.126;2022-08-21T09:28:43;91321.06;;;21.61;70.78
54996;BME280;40893;47.146;9.126;2022-08-21T09:31:22;91313.25;;;21.46;77.94
54996;BME280;40893;47.146;9.126;2022-08-21T09:33:48;91307.50;;;21.56;74.50
54996;BME280;40893;47.146;9.126;2022-08-21T09:36:37;91310.59;;;21.61;74.79
54996;BME280;40893;47.146;9.126;2022-08-21T09:39:03;91307.66;;;21.63;72.33
54996;BME280;40893;47.146;9.126;2022-08-21T09:41:32;91306.56;;;21.64;71.33
54996;BME280;40893;47.146;9.126;2022-08-21T09:44:00;91299.75;;;21.79;71.05
54996;BME280;40893;47.146;9.126;2022-08-21T09:46:27;91302.28;;;21.94;71.87
54996;BME280;40893;47.146;9.126;2022-08-21T09:49:02;91300.78;;;21.93;75.27
54996;BME280;40893;47.146;9.126;2022-08-21T09:51:31;91294.69;;;22.05;71.85
54996;BME280;40893;47.146;9.126;2022-08-21T09:54:17;91287.44;;;22.18;74.77
54996;BME280;40893;47.146;9.126;2022-08-21T09:56:59;91284.56;;;22.23;70.83
54996;BME280;40893;47.146;9.126;2022-08-21T09:59:45;91282.75;;;22.27;67.49
54996;BME280;40893;47.146;9.126;2022-08-21T10:02:32;91282.81;;;22.30;68.70
54996;BME280;40893;47.146;9.126;2022-08-21T10:05:07;91274.75;;;22.39;72.00
54996;BME280;40893;47.146;9.126;2022-08-21T10:07:37;91270.16;;;22.32;70.23
54996;BME280;40893;47.146;9.126;2022-08-21T10:15:24;91275.66;;;22.27;71.40
54996;BME280;40893;47.146;9.126;2022-08-21T10:20:50;91271.31;;;22.35;70.40
54996;BME280;40893;47.146;9.126;2022-08-21T10:37:01;91270.56;;;22.34;71.67
54996;BME280;40893;47.146;9.126;2022-08-21T10:39:35;91270.31;;;22.20;68.96
54996;BME280;40893;47.146;9.126;2022-08-21T10:42:06;91268.88;;;22.23;77.41
54996;BME280;40893;47.146;9.126;2022-08-21T10:47:33;91265.75;;;22.36;70.74
54996;BME280;40893;47.146;9.126;2022-08-21T10:50:30;91266.97;;;22.20;74.13
54996;BME280;40893;47.146;9.126;2022-08-21T10:56:04;91254.91;;;22.34;76.09
54996;BME280;40893;47.146;9.126;2022-08-21T10:58:40;91255.28;;;22.36;73.06
54996;BME280;40893;47.146;9.126;2022-08-21T11:01:20;91253.94;;;22.46;77.49
54996;BME280;40893;47.146;9.126;2022-08-21T11:03:54;91247.34;;;22.52;73.90
54996;BME280;40893;47.146;9.126;2022-08-21T11:06:31;91238.03;;;22.55;70.97
54996;BME280;40893;47.146;9.126;2022-08-21T11:09:05;91240.75;;;22.62;71.92
54996;BME280;40893;47.146;9.126;2022-08-21T11:11:38;91239.66;;;22.63;72.08
54996;BME280;40893;47.146;9.126;2022-08-21T11:16:57;91243.47;;;22.46;70.13
54996;BME280;40893;47.146;9.126;2022-08-21T11:19:35;91239.91;;;22.54;72.79
54996;BME280;40893;47.146;9.126;2022-08-21T11:22:15;91235.44;;;22.55;72.99
54996;BME280;40893;47.146;9.126;2022-08-21T11:25:20;91231.13;;;22.43;70.96
54996;BME280;40893;47.146;9.126;2022-08-21T11:27:56;91229.84;;;22.56;74.18
54996;BME280;40893;47.146;9.126;2022-08-21T11:30:28;91224.06;;;22.70;72.47
54996;BME280;40893;47.146;9.126;2022-08-21T11:38:50;91220.19;;;22.60;75.41
54996;BME280;40893;47.146;9.126;2022-08-21T11:41:36;91216.97;;;22.70;71.89
54996;BME280;40893;47.146;9.126;2022-08-21T11:50:13;91211.47;;;23.02;72.71
54996;BME280;40893;47.146;9.126;2022-08-21T11:52:48;91211.03;;;22.96;72.52
54996;BME280;40893;47.146;9.126;2022-08-21T11:55:29;91200.91;;;22.95;69.56
54996;BME280;40893;47.146;9.126;2022-08-21T11:58:16;91190.22;;;22.77;76.94
54996;BME280;40893;47.146;9.126;2022-08-21T12:01:25;91193.09;;;22.72;77.00
54996;BME280;40893;47.146;9.126;2022-08-21T12:03:57;91186.59;;;22.62;78.45
54996;BME280;40893;47.146;9.126;2022-08-21T12:06:31;91195.19;;;22.63;77.30
54996;BME280;40893;47.146;9.126;2022-08-21T12:09:05;91193.06;;;22.68;77.63
54996;BME280;40893;47.146;9.126;2022-08-21T12:11:31;91190.09;;;22.47;71.99
54996;BME280;40893;47.146;9.126;2022-08-21T12:14:10;91188.78;;;22.57;72.75
54996;BME280;40893;47.146;9.126;2022-08-21T12:16:39;91179.06;;;22.57;78.06
54996;BME280;40893;47.146;9.126;2022-08-21T12:19:31;91178.56;;;22.74;76.92
54996;BME280;40893;47.146;9.126;2022-08-21T12:24:37;91180.41;;;22.74;77.27
54996;BME280;40893;47.146;9.126;2022-08-21T12:27:27;91179.25;;;22.71;79.65
54996;BME280;40893;47.146;9.126;2022-08-21T12:30:03;91183.69;;;22.67;76.26
54996;BME280;40893;47.146;9.126;2022-08-21T12:32:43;91175.78;;;22.64;77.88
54996;BME280;40893;47.146;9.126;2022-08-21T12:35:23;91165.63;;;22.59;75.95
54996;BME280;40893;47.146;9.126;2022-08-21T12:37:57;91169.31;;;22.54;81.24
54996;BME280;40893;47.146;9.126;2022-08-21T12:40:31;91164.78;;;22.51;77.19
54996;BME280;40893;47.146;9.126;2022-08-21T12:43:00;91162.38;;;22.65;78.17
54996;BME280;40893;47.146;9.126;2022-08-21T12:45:39;91166.25;;;22.75;77.89
54996;BME280;40893;47.146;9.126;2022-08-21T12:48:13;91156.13;;;22.73;76.06
54996;BME280;40893;47.146;9.126;2022-08-21T12:50:54;91156.81;;;22.70;74.05
54996;BME280;40893;47.146;9.126;2022-08-21T12:53:33;91159.75;;;22.65;76.75
54996;BME280;40893;47.146;9.126;2022-08-21T12:56:03;91161.06;;;22.52;74.82
54996;BME280;40893;47.146;9.126;2022-08-21T12:58:30;91160.78;;;22.57;76.18
54996;BME280;40893;47.146;9.126;2022-08-21T13:01:12;91153.66;;;22.58;75.10
54996;BME280;40893;47.146;9.126;2022-08-21T13:03:38;91150.41;;;22.64;77.54
54996;BME280;40893;47.146;9.126;2022-08-21T13:06:06;91157.16;;;22.69;76.57
54996;BME280;40893;47.146;9.126;2022-08-21T13:08:35;91141.88;;;22.67;74.49
54996;BME280;40893;47.146;9.126;2022-08-21T13:11:05;91152.00;;;22.72;79.52
54996;BME280;40893;47.146;9.126;2022-08-21T13:13:32;91155.13;;;22.81;76.83
54996;BME280;40893;47.146;9.126;2022-08-21T13:16:05;91160.72;;;22.80;75.53
54996;BME280;40893;47.146;9.126;2022-08-21T13:18:34;91148.38;;;22.77;74.86
54996;BME280;40893;47.146;9.126;2022-08-21T13:21:11;91140.22;;;22.59;78.22
54996;BME280;40893;47.146;9.126;2022-08-21T13:23:37;91141.66;;;22.53;78.14
54996;BME280;40893;47.146;9.126;2022-08-21T13:26:23;91148.69;;;22.23;73.16
54996;BME280;40893;47.146;9.126;2022-08-21T13:28:49;91147.78;;;22.12;71.52
54996;BME280;40893;47.146;9.126;2022-08-21T13:31:19;91158.16;;;22.08;72.38
54996;BME280;40893;47.146;9.126;2022-08-21T13:33:47;91150.38;;;22.12;72.33
54996;BME280;40893;47.146;9.126;2022-08-21T13:36:26;91150.88;;;22.21;70.08
54996;BME280;40893;47.146;9.126;2022-08-21T13:38:54;91147.00;;;22.34;73.36
54996;BME280;40893;47.146;9.126;2022-08-21T13:41:24;91142.91;;;22.63;73.34
54996;BME280;40893;47.146;9.126;2022-08-21T13:44:03;91147.03;;;22.90;73.09
54996;BME280;40893;47.146;9.126;2022-08-21T13:46:31;91144.47;;;22.94;71.73
54996;BME280;40893;47.146;9.126;2022-08-21T13:48:59;91145.06;;;22.84;65.99
54996;BME280;40893;47.146;9.126;2022-08-21T13:51:26;91136.66;;;22.71;68.34
54996;BME280;40893;47.146;9.126;2022-08-21T13:53:53;91138.13;;;22.68;70.11
54996;BME280;40893;47.146;9.126;2022-08-21T13:56:26;91141.09;;;22.67;70.37
54996;BME280;40893;47.146;9.126;2022-08-21T13:58:54;91141.00;;;22.60;69.82
54996;BME280;40893;47.146;9.126;2022-08-21T14:01:22;91154.72;;;22.53;70.03
54996;BME280;40893;47.146;9.126;2022-08-21T14:03:51;91157.47;;;22.37;71.33
54996;BME280;40893;47.146;9.126;2022-08-21T14:06:24;91149.47;;;22.27;72.33
54996;BME280;40893;47.146;9.126;2022-08-21T14:08:57;91156.06;;;22.17;66.80